sensor_id;sensor_type;location;lat;lon;timestamp;P1;durP1;ratioP1;P2;durP2;ratioP2
69502;SDS011;56704;54.242;12.442;2023-04-25T00:02:15;10.77;;;4.93;;
69502;SDS011;56704;54.242;12.442;2023-04-25T00:04:44;10.45;;;4.40;;
69502;SDS011;56704;54.242;12.442;2023-04-25T00:07:11;9.57;;;3.55;;
69502;SDS011;56704;54.242;12.442;2023-04-25T00:09:37;9.87;;;3.93;;
69502;SDS011;56704;54.242;12.442;2023-04-25T00:12:04;9.95;;;3.20;;
69502;SDS011;56704;54.242;12.442;2023-04-25T00:14:31;9.50;;;2.80;;
69502;SDS011;56704;54.242;12.442;2023-04-25T00:17:00;6.78;;;1.90;;
69502;SDS011;56704;54.242;12.442;2023-04-25T00:19:27;11.80;;;4.38;;
69502;SDS011;56704;54.242;12.442;2023-04-25T00:21:55;6.90;;;2.70;;
69502;SDS011;56704;54.242;12.442;2023-04-25T00:24:22;5.80;;;2.17;;
69502;SDS011;56704;54.242;12.442;2023-04-25T00:26:49;9.20;;;3.22;;
69502;SDS011;56704;54.242;12.442;2023-04-25T00:29:15;9.10;;;2.95;;
69502;SDS011;56704;54.242;12.442;2023-04-25T00:31:42;8.25;;;2.35;;
69502;SDS011;56704;54.242;12.442;2023-04-25T00:34:08;7.77;;;3.27;;
69502;SDS011;56704;54.242;12.442;2023-04-25T00:36:35;7.38;;;2.83;;
69502;SDS011;56704;54.242;12.442;2023-04-25T00:39:03;10.07;;;3.63;;
69502;SDS011;56704;54.242;12.442;2023-04-25T00:41:31;7.38;;;3.00;;
69502;SDS011;56704;54.242;12.442;2023-04-25T00:43:59;6.78;;;2.90;;
69502;SDS011;56704;54.242;12.442;2023-04-25T00:46:26;5.80;;;1.90;;
69502;SDS011;56704;54.242;12.442;2023-04-25T00:48:53;10.15;;;2.72;;
69502;SDS011;56704;54.242;12.442;2023-04-25T00:51:19;7.22;;;2.42;;
69502;SDS011;56704;54.242;12.442;2023-04-25T00:53:47;5.00;;;1.30;;
69502;SDS011;56704;54.242;12.442;2023-04-25T00:56:16;7.65;;;3.20;;
69502;SDS011;56704;54.242;12.442;2023-04-25T00:58:43;6.23;;;2.40;;
69502;SDS011;56704;54.242;12.442;2023-04-25T01:01:10;7.85;;;2.67;;
69502;SDS011;56704;54.242;12.442;2023-04-25T01:03:38;8.18;;;3.20;;
69502;SDS011;56704;54.242;12.442;2023-04-25T01:06:07;7.63;;;2.90;;
69502;SDS011;56704;54.242;12.442;2023-04-25T01:08:34;8.27;;;2.90;;
69502;SDS011;56704;54.242;12.442;2023-04-25T01:11:01;8.53;;;3.30;;
69502;SDS011;56704;54.242;12.442;2023-04-25T01:13:29;9.40;;;2.97;;
69502;SDS011;56704;54.242;12.442;2023-04-25T01:15:57;8.25;;;2.75;;
69502;SDS011;56704;54.242;12.442;2023-04-25T01:18:23;6.68;;;2.58;;
69502;SDS011;56704;54.242;12.442;2023-04-25T01:20:50;6.60;;;2.20;;
69502;SDS011;56704;54.242;12.442;2023-04-25T01:23:19;4.50;;;1.77;;
69502;SDS011;56704;54.242;12.442;2023-04-25T01:25:47;6.50;;;2.72;;
69502;SDS011;56704;54.242;12.442;2023-04-25T01:28:14;5.85;;;1.77;;
69502;SDS011;56704;54.242;12.442;2023-04-25T01:30:41;8.25;;;2.45;;
69502;SDS011;56704;54.242;12.442;2023-04-25T01:33:09;4.28;;;1.70;;
69502;SDS011;56704;54.242;12.442;2023-04-25T01:35:37;12.67;;;3.03;;
69502;SDS011;56704;54.242;12.442;2023-04-25T01:38:03;7.20;;;2.10;;
69502;SDS011;56704;54.242;12.442;2023-04-25T01:40:31;6.50;;;2.35;;
69502;SDS011;56704;54.242;12.442;2023-04-25T01:43:00;7.55;;;2.50;;
69502;SDS011;56704;54.242;12.442;2023-04-25T01:45:26;8.77;;;2.13;;
69502;SDS011;56704;54.242;12.442;2023-04-25T01:47:53;4.83;;;1.70;;
69502;SDS011;56704;54.242;12.442;2023-04-25T01:50:24;5.22;;;1.35;;
69502;SDS011;56704;54.242;12.442;2023-04-25T01:52:51;4.78;;;1.92;;
69502;SDS011;56704;54.242;12.442;2023-04-25T01:55:17;4.95;;;1.45;;
69502;SDS011;56704;54.242;12.442;2023-04-25T01:57:45;5.57;;;2.03;;
69502;SDS011;56704;54.242;12.442;2023-04-25T02:00:12;10.53;;;3.03;;
69502;SDS011;56704;54.242;12.442;2023-04-25T02:02:39;8.80;;;2.50;;
69502;SDS011;56704;54.242;12.442;2023-04-25T02:05:06;8.60;;;2.92;;
69502;SDS011;56704;54.242;12.442;2023-04-25T02:07:33;6.72;;;2.17;;
69502;SDS011;56704;54.242;12.442;2023-04-25T02:10:00;11.63;;;3.15;;
69502;SDS011;56704;54.242;12.442;2023-04-25T02:12:27;9.90;;;2.37;;
69502;SDS011;56704;54.242;12.442;2023-04-25T02:14:55;4.28;;;1.52;;
69502;SDS011;56704;54.242;12.442;2023-04-25T02:17:21;4.93;;;1.80;;
69502;SDS011;56704;54.242;12.442;2023-04-25T02:19:48;8.68;;;2.60;;
69502;SDS011;56704;54.242;12.442;2023-04-25T02:22:15;7.97;;;2.40;;
69502;SDS011;56704;54.242;12.442;2023-04-25T02:24:41;11.57;;;2.87;;
69502;SDS011;56704;54.242;12.442;2023-04-25T02:27:08;9.15;;;1.95;;
69502;SDS011;56704;54.242;12.442;2023-04-25T02:29:35;9.60;;;2.50;;
69502;SDS011;56704;54.242;12.442;2023-04-25T02:32:03;6.30;;;2.00;;
69502;SDS011;56704;54.242;12.442;2023-04-25T02:34:30;8.20;;;2.50;;
69502;SDS011;56704;54.242;12.442;2023-04-25T02:36:56;9.27;;;2.43;;
69502;SDS011;56704;54.242;12.442;2023-04-25T02:39:23;10.30;;;2.40;;
69502;SDS011;56704;54.242;12.442;2023-04-25T02:41:50;10.57;;;2.30;;
69502;SDS011;56704;54.242;12.442;2023-04-25T02:44:18;5.05;;;1.65;;
69502;SDS011;56704;54.242;12.442;2023-04-25T02:46:46;7.43;;;2.13;;
69502;SDS011;56704;54.242;12.442;2023-04-25T02:49:14;5.13;;;1.53;;
69502;SDS011;56704;54.242;12.442;2023-04-25T02:51:40;6.20;;;1.90;;
69502;SDS011;56704;54.242;12.442;2023-04-25T02:54:07;7.35;;;1.45;;
69502;SDS011;56704;54.242;12.442;2023-04-25T02:56:33;11.90;;;2.55;;
69502;SDS011;56704;54.242;12.442;2023-04-25T02:59:00;10.60;;;2.00;;
69502;SDS011;56704;54.242;12.442;2023-04-25T03:01:27;7.00;;;1.43;;
69502;SDS011;56704;54.242;12.442;2023-04-25T03:03:53;9.65;;;1.67;;
69502;SDS011;56704;54.242;12.442;2023-04-25T03:06:21;7.30;;;2.22;;
69502;SDS011;56704;54.242;12.442;2023-04-25T03:08:48;6.47;;;1.02;;
69502;SDS011;56704;54.242;12.442;2023-04-25T03:11:14;8.73;;;1.63;;
69502;SDS011;56704;54.242;12.442;2023-04-25T03:13:41;8.90;;;2.20;;
69502;SDS011;56704;54.242;12.442;2023-04-25T03:16:07;9.57;;;1.40;;
69502;SDS011;56704;54.242;12.442;2023-04-25T03:18:34;8.65;;;1.50;;
69502;SDS011;56704;54.242;12.442;2023-04-25T03:21:00;6.43;;;1.60;;
69502;SDS011;56704;54.242;12.442;2023-04-25T03:23:28;6.72;;;1.25;;
69502;SDS011;56704;54.242;12.442;2023-04-25T03:25:55;6.27;;;1.07;;
69502;SDS011;56704;54.242;12.442;2023-04-25T03:28:21;9.43;;;1.17;;
69502;SDS011;56704;54.242;12.442;2023-04-25T03:30:48;10.77;;;1.75;;
69502;SDS011;56704;54.242;12.442;2023-04-25T03:33:15;9.07;;;1.92;;
69502;SDS011;56704;54.242;12.442;2023-04-25T03:35:41;6.00;;;1.30;;
69502;SDS011;56704;54.242;12.442;2023-04-25T03:38:08;8.57;;;1.60;;
69502;SDS011;56704;54.242;12.442;2023-04-25T03:40:36;10.13;;;1.77;;
69502;SDS011;56704;54.242;12.442;2023-04-25T03:43:03;9.38;;;1.52;;
69502;SDS011;56704;54.242;12.442;2023-04-25T03:45:29;6.30;;;1.00;;
69502;SDS011;56704;54.242;12.442;2023-04-25T03:47:56;8.68;;;1.67;;
69502;SDS011;56704;54.242;12.442;2023-04-25T03:50:23;11.43;;;1.87;;
69502;SDS011;56704;54.242;12.442;2023-04-25T03:52:49;8.70;;;1.77;;
69502;SDS011;56704;54.242;12.442;2023-04-25T03:55:16;11.43;;;1.15;;
69502;SDS011;56704;54.242;12.442;2023-04-25T03:57:44;12.68;;;1.52;;
69502;SDS011;56704;54.242;12.442;2023-04-25T04:00:11;8.45;;;1.33;;
69502;SDS011;56704;54.242;12.442;2023-04-25T04:02:39;7.43;;;1.47;;
69502;SDS011;56704;54.242;12.442;2023-04-25T04:05:05;6.82;;;1.13;;
69502;SDS011;56704;54.242;12.442;2023-04-25T04:07:32;12.70;;;1.88;;
69502;SDS011;56704;54.242;12.442;2023-04-25T04:10:04;9.68;;;1.40;;
69502;SDS011;56704;54.242;12.442;2023-04-25T04:12:32;9.98;;;2.00;;
69502;SDS011;56704;54.242;12.442;2023-04-25T04:15:00;6.40;;;1.00;;
69502;SDS011;56704;54.242;12.442;2023-04-25T04:17:28;8.85;;;1.85;;
69502;SDS011;56704;54.242;12.442;2023-04-25T04:19:54;12.18;;;2.30;;
69502;SDS011;56704;54.242;12.442;2023-04-25T04:22:21;9.50;;;1.80;;
69502;SDS011;56704;54.242;12.442;2023-04-25T04:24:51;7.18;;;1.63;;
69502;SDS011;56704;54.242;12.442;2023-04-25T04:27:19;14.23;;;2.57;;
69502;SDS011;56704;54.242;12.442;2023-04-25T04:29:46;7.20;;;1.73;;
69502;SDS011;56704;54.242;12.442;2023-04-25T04:32:14;9.07;;;1.77;;
69502;SDS011;56704;54.242;12.442;2023-04-25T04:34:42;12.90;;;3.78;;
69502;SDS011;56704;54.242;12.442;2023-04-25T04:37:09;9.50;;;1.50;;
69502;SDS011;56704;54.242;12.442;2023-04-25T04:39:38;12.47;;;1.80;;
69502;SDS011;56704;54.242;12.442;2023-04-25T04:42:04;8.32;;;1.30;;
69502;SDS011;56704;54.242;12.442;2023-04-25T04:44:31;8.32;;;1.63;;
69502;SDS011;56704;54.242;12.442;2023-04-25T04:46:59;9.93;;;1.42;;
69502;SDS011;56704;54.242;12.442;2023-04-25T04:49:27;14.50;;;1.50;;
69502;SDS011;56704;54.242;12.442;2023-04-25T04:51:54;10.17;;;1.70;;
69502;SDS011;56704;54.242;12.442;2023-04-25T04:54:20;11.98;;;1.60;;
69502;SDS011;56704;54.242;12.442;2023-04-25T04:56:47;7.80;;;1.10;;
69502;SDS011;56704;54.242;12.442;2023-04-25T04:59:13;13.55;;;2.22;;
69502;SDS011;56704;54.242;12.442;2023-04-25T05:01:40;8.27;;;1.73;;
69502;SDS011;56704;54.242;12.442;2023-04-25T05:04:06;7.67;;;1.00;;
69502;SDS011;56704;54.242;12.442;2023-04-25T05:06:34;8.38;;;1.65;;
69502;SDS011;56704;54.242;12.442;2023-04-25T05:09:01;7.80;;;1.65;;
69502;SDS011;56704;54.242;12.442;2023-04-25T05:11:28;6.25;;;1.20;;
69502;SDS011;56704;54.242;12.442;2023-04-25T05:13:55;7.68;;;1.30;;
69502;SDS011;56704;54.242;12.442;2023-04-25T05:16:21;10.13;;;1.23;;
69502;SDS011;56704;54.242;12.442;2023-04-25T05:18:48;8.30;;;1.40;;
69502;SDS011;56704;54.242;12.442;2023-04-25T05:21:15;13.02;;;2.03;;
69502;SDS011;56704;54.242;12.442;2023-04-25T05:23:42;12.93;;;1.58;;
69502;SDS011;56704;54.242;12.442;2023-04-25T05:26:09;6.40;;;0.73;;
69502;SDS011;56704;54.242;12.442;2023-04-25T05:28:38;8.70;;;1.63;;
69502;SDS011;56704;54.242;12.442;2023-04-25T05:31:05;9.13;;;1.30;;
69502;SDS011;56704;54.242;12.442;2023-04-25T05:33:31;10.35;;;1.88;;
69502;SDS011;56704;54.242;12.442;2023-04-25T05:35:58;10.65;;;1.67;;
69502;SDS011;56704;54.242;12.442;2023-04-25T05:38:25;13.80;;;1.55;;
69502;SDS011;56704;54.242;12.442;2023-04-25T05:40:53;16.77;;;1.60;;
69502;SDS011;56704;54.242;12.442;2023-04-25T05:43:19;10.10;;;1.40;;
69502;SDS011;56704;54.242;12.442;2023-04-25T05:45:46;10.68;;;2.03;;
69502;SDS011;56704;54.242;12.442;2023-04-25T05:48:13;10.43;;;1.80;;
69502;SDS011;56704;54.242;12.442;2023-04-25T05:50:39;8.40;;;1.08;;
69502;SDS011;56704;54.242;12.442;2023-04-25T05:53:06;7.77;;;1.00;;
69502;SDS011;56704;54.242;12.442;2023-04-25T05:55:32;14.77;;;2.03;;
69502;SDS011;56704;54.242;12.442;2023-04-25T05:58:00;10.77;;;2.55;;
69502;SDS011;56704;54.242;12.442;2023-04-25T06:00:27;6.93;;;1.35;;
69502;SDS011;56704;54.242;12.442;2023-04-25T06:02:53;11.35;;;2.05;;
69502;SDS011;56704;54.242;12.442;2023-04-25T06:05:20;9.00;;;1.60;;
69502;SDS011;56704;54.242;12.442;2023-04-25T06:07:47;10.75;;;1.90;;
69502;SDS011;56704;54.242;12.442;2023-04-25T06:10:14;12.50;;;2.08;;
69502;SDS011;56704;54.242;12.442;2023-04-25T06:12:40;16.05;;;2.10;;
69502;SDS011;56704;54.242;12.442;2023-04-25T06:15:08;11.35;;;1.65;;
69502;SDS011;56704;54.242;12.442;2023-04-25T06:17:36;11.73;;;2.50;;
69502;SDS011;56704;54.242;12.442;2023-04-25T06:20:02;14.40;;;2.33;;
69502;SDS011;56704;54.242;12.442;2023-04-25T06:22:31;11.85;;;2.75;;
69502;SDS011;56704;54.242;12.442;2023-04-25T06:24:57;11.27;;;2.00;;
69502;SDS011;56704;54.242;12.442;2023-04-25T06:27:25;12.07;;;1.60;;
69502;SDS011;56704;54.242;12.442;2023-04-25T06:29:51;10.70;;;1.93;;
69502;SDS011;56704;54.242;12.442;2023-04-25T06:32:19;8.00;;;1.30;;
69502;SDS011;56704;54.242;12.442;2023-04-25T06:34:46;19.98;;;2.15;;
69502;SDS011;56704;54.242;12.442;2023-04-25T06:37:12;10.32;;;1.77;;
69502;SDS011;56704;54.242;12.442;2023-04-25T06:39:39;5.68;;;1.38;;
69502;SDS011;56704;54.242;12.442;2023-04-25T06:42:05;14.60;;;1.67;;
69502;SDS011;56704;54.242;12.442;2023-04-25T06:44:32;8.52;;;1.80;;
69502;SDS011;56704;54.242;12.442;2023-04-25T06:46:59;13.23;;;1.95;;
69502;SDS011;56704;54.242;12.442;2023-04-25T06:49:27;11.10;;;1.58;;
69502;SDS011;56704;54.242;12.442;2023-04-25T06:51:53;18.60;;;3.45;;
69502;SDS011;56704;54.242;12.442;2023-04-25T06:54:20;11.10;;;1.67;;
69502;SDS011;56704;54.242;12.442;2023-04-25T06:56:46;15.93;;;2.53;;
69502;SDS011;56704;54.242;12.442;2023-04-25T06:59:13;11.23;;;1.77;;
69502;SDS011;56704;54.242;12.442;2023-04-25T07:01:39;10.05;;;1.50;;
69502;SDS011;56704;54.242;12.442;2023-04-25T07:04:06;6.70;;;1.60;;
69502;SDS011;56704;54.242;12.442;2023-04-25T07:06:34;5.70;;;1.10;;
69502;SDS011;56704;54.242;12.442;2023-04-25T07:09:03;11.95;;;1.55;;
69502;SDS011;56704;54.242;12.442;2023-04-25T07:11:29;13.38;;;2.40;;
69502;SDS011;56704;54.242;12.442;2023-04-25T07:13:56;12.70;;;2.50;;
69502;SDS011;56704;54.242;12.442;2023-04-25T07:16:22;12.73;;;1.77;;
69502;SDS011;56704;54.242;12.442;2023-04-25T07:18:49;11.13;;;1.63;;
69502;SDS011;56704;54.242;12.442;2023-04-25T07:21:15;7.82;;;1.30;;
69502;SDS011;56704;54.242;12.442;2023-04-25T07:23:43;11.40;;;1.73;;
69502;SDS011;56704;54.242;12.442;2023-04-25T07:26:10;12.45;;;1.25;;
69502;SDS011;56704;54.242;12.442;2023-04-25T07:28:37;10.32;;;1.70;;
69502;SDS011;56704;54.242;12.442;2023-04-25T07:31:03;18.57;;;3.20;;
69502;SDS011;56704;54.242;12.442;2023-04-25T07:33:30;11.55;;;1.58;;
69502;SDS011;56704;54.242;12.442;2023-04-25T07:35:56;9.73;;;1.70;;
69502;SDS011;56704;54.242;12.442;2023-04-25T07:38:23;10.50;;;1.40;;
69502;SDS011;56704;54.242;12.442;2023-04-25T07:40:51;11.23;;;1.60;;
69502;SDS011;56704;54.242;12.442;2023-04-25T07:43:17;6.73;;;1.33;;
69502;SDS011;56704;54.242;12.442;2023-04-25T07:45:44;10.52;;;1.50;;
69502;SDS011;56704;54.242;12.442;2023-04-25T07:48:11;9.60;;;1.48;;
69502;SDS011;56704;54.242;12.442;2023-04-25T07:50:37;10.43;;;1.73;;
69502;SDS011;56704;54.242;12.442;2023-04-25T07:53:04;10.50;;;1.90;;
69502;SDS011;56704;54.242;12.442;2023-04-25T07:55:31;10.90;;;1.40;;
69502;SDS011;56704;54.242;12.442;2023-04-25T07:57:59;12.50;;;1.75;;
69502;SDS011;56704;54.242;12.442;2023-04-25T08:00:25;12.35;;;1.80;;
69502;SDS011;56704;54.242;12.442;2023-04-25T08:02:52;9.45;;;1.25;;
69502;SDS011;56704;54.242;12.442;2023-04-25T08:05:19;9.07;;;1.17;;
69502;SDS011;56704;54.242;12.442;2023-04-25T08:07:46;11.90;;;1.37;;
69502;SDS011;56704;54.242;12.442;2023-04-25T08:10:12;6.68;;;0.77;;
69502;SDS011;56704;54.242;12.442;2023-04-25T08:12:39;9.55;;;1.48;;
69502;SDS011;56704;54.242;12.442;2023-04-25T08:15:08;11.13;;;2.67;;
69502;SDS011;56704;54.242;12.442;2023-04-25T08:17:35;8.05;;;1.23;;
69502;SDS011;56704;54.242;12.442;2023-04-25T08:20:02;11.60;;;1.63;;
69502;SDS011;56704;54.242;12.442;2023-04-25T08:22:30;8.80;;;1.23;;
69502;SDS011;56704;54.242;12.442;2023-04-25T08:24:57;6.25;;;0.93;;
69502;SDS011;56704;54.242;12.442;2023-04-25T08:27:23;9.40;;;1.55;;
69502;SDS011;56704;54.242;12.442;2023-04-25T08:29:50;9.48;;;1.23;;
69502;SDS011;56704;54.242;12.442;2023-04-25T08:32:18;11.77;;;1.70;;
69502;SDS011;56704;54.242;12.442;2023-04-25T08:34:46;8.13;;;1.50;;
69502;SDS011;56704;54.242;12.442;2023-04-25T08:37:12;15.07;;;1.90;;
69502;SDS011;56704;54.242;12.442;2023-04-25T08:39:39;5.07;;;0.85;;
69502;SDS011;56704;54.242;12.442;2023-04-25T08:42:07;14.52;;;2.08;;
69502;SDS011;56704;54.242;12.442;2023-04-25T08:44:33;10.90;;;1.43;;
69502;SDS011;56704;54.242;12.442;2023-04-25T08:47:01;11.27;;;2.25;;
69502;SDS011;56704;54.242;12.442;2023-04-25T08:49:30;9.57;;;1.92;;
69502;SDS011;56704;54.242;12.442;2023-04-25T08:51:59;7.47;;;1.33;;
69502;SDS011;56704;54.242;12.442;2023-04-25T08:54:27;10.32;;;1.50;;
69502;SDS011;56704;54.242;12.442;2023-04-25T08:56:55;5.00;;;1.03;;
69502;SDS011;56704;54.242;12.442;2023-04-25T08:59:23;8.20;;;1.42;;
69502;SDS011;56704;54.242;12.442;2023-04-25T09:01:50;9.18;;;1.33;;
69502;SDS011;56704;54.242;12.442;2023-04-25T09:04:16;13.93;;;1.05;;
69502;SDS011;56704;54.242;12.442;2023-04-25T09:06:45;9.40;;;1.58;;
69502;SDS011;56704;54.242;12.442;2023-04-25T09:09:12;13.63;;;1.57;;
69502;SDS011;56704;54.242;12.442;2023-04-25T09:11:39;8.55;;;2.03;;
69502;SDS011;56704;54.242;12.442;2023-04-25T09:14:10;7.85;;;1.45;;
69502;SDS011;56704;54.242;12.442;2023-04-25T09:16:49;9.77;;;1.48;;
69502;SDS011;56704;54.242;12.442;2023-04-25T09:19:24;7.10;;;1.30;;
69502;SDS011;56704;54.242;12.442;2023-04-25T09:21:54;5.37;;;0.97;;
69502;SDS011;56704;54.242;12.442;2023-04-25T09:24:29;11.35;;;1.52;;
69502;SDS011;56704;54.242;12.442;2023-04-25T09:27:02;9.50;;;1.30;;
69502;SDS011;56704;54.242;12.442;2023-04-25T09:29:30;23.83;;;2.65;;
69502;SDS011;56704;54.242;12.442;2023-04-25T09:32:13;8.52;;;1.35;;
69502;SDS011;56704;54.242;12.442;2023-04-25T09:34:43;5.30;;;1.40;;
69502;SDS011;56704;54.242;12.442;2023-04-25T09:37:16;5.47;;;0.80;;
69502;SDS011;56704;54.242;12.442;2023-04-25T09:39:44;9.35;;;1.00;;
69502;SDS011;56704;54.242;12.442;2023-04-25T09:42:11;8.50;;;1.60;;
69502;SDS011;56704;54.242;12.442;2023-04-25T09:44:41;9.02;;;1.40;;
69502;SDS011;56704;54.242;12.442;2023-04-25T09:47:09;9.60;;;1.50;;
69502;SDS011;56704;54.242;12.442;2023-04-25T09:49:38;7.45;;;1.15;;
69502;SDS011;56704;54.242;12.442;2023-04-25T09:52:05;12.93;;;1.58;;
69502;SDS011;56704;54.242;12.442;2023-04-25T09:54:33;6.45;;;1.33;;
69502;SDS011;56704;54.242;12.442;2023-04-25T09:57:00;8.60;;;1.52;;
69502;SDS011;56704;54.242;12.442;2023-04-25T09:59:33;10.40;;;1.73;;
69502;SDS011;56704;54.242;12.442;2023-04-25T10:02:03;6.63;;;1.23;;
69502;SDS011;56704;54.242;12.442;2023-04-25T10:04:30;11.07;;;1.52;;
69502;SDS011;56704;54.242;12.442;2023-04-25T10:07:00;9.13;;;0.85;;
69502;SDS011;56704;54.242;12.442;2023-04-25T10:09:29;9.30;;;1.40;;
69502;SDS011;56704;54.242;12.442;2023-04-25T10:12:00;11.83;;;1.63;;
69502;SDS011;56704;54.242;12.442;2023-04-25T10:14:28;8.73;;;1.35;;
69502;SDS011;56704;54.242;12.442;2023-04-25T10:16:56;9.80;;;1.42;;
69502;SDS011;56704;54.242;12.442;2023-04-25T10:19:24;9.38;;;1.40;;
69502;SDS011;56704;54.242;12.442;2023-04-25T10:21:52;8.52;;;1.83;;
69502;SDS011;56704;54.242;12.442;2023-04-25T10:24:22;12.23;;;1.77;;
69502;SDS011;56704;54.242;12.442;2023-04-25T10:26:50;4.78;;;1.10;;
69502;SDS011;56704;54.242;12.442;2023-04-25T10:29:25;8.25;;;1.42;;
69502;SDS011;56704;54.242;12.442;2023-04-25T10:31:52;13.23;;;1.98;;
69502;SDS011;56704;54.242;12.442;2023-04-25T10:34:19;13.38;;;1.85;;
69502;SDS011;56704;54.242;12.442;2023-04-25T10:36:50;12.10;;;1.67;;
69502;SDS011;56704;54.242;12.442;2023-04-25T10:39:21;11.90;;;1.85;;
69502;SDS011;56704;54.242;12.442;2023-04-25T10:41:53;9.57;;;1.80;;
69502;SDS011;56704;54.242;12.442;2023-04-25T10:44:21;4.47;;;1.23;;
69502;SDS011;56704;54.242;12.442;2023-04-25T10:46:49;6.90;;;0.95;;
69502;SDS011;56704;54.242;12.442;2023-04-25T10:49:29;8.17;;;1.23;;
69502;SDS011;56704;54.242;12.442;2023-04-25T10:54:53;5.45;;;1.20;;
69502;SDS011;56704;54.242;12.442;2023-04-25T10:57:27;4.65;;;1.08;;
69502;SDS011;56704;54.242;12.442;2023-04-25T10:59:57;6.28;;;1.00;;
69502;SDS011;56704;54.242;12.442;2023-04-25T11:02:27;4.30;;;0.97;;
69502;SDS011;56704;54.242;12.442;2023-04-25T11:04:54;10.63;;;1.40;;
69502;SDS011;56704;54.242;12.442;2023-04-25T11:07:23;5.30;;;0.90;;
69502;SDS011;56704;54.242;12.442;2023-04-25T11:09:55;9.63;;;1.00;;
69502;SDS011;56704;54.242;12.442;2023-04-25T11:12:21;5.70;;;0.68;;
69502;SDS011;56704;54.242;12.442;2023-04-25T11:14:50;6.43;;;0.80;;
69502;SDS011;56704;54.242;12.442;2023-04-25T11:17:27;4.30;;;0.55;;
69502;SDS011;56704;54.242;12.442;2023-04-25T11:19:54;11.18;;;1.73;;
69502;SDS011;56704;54.242;12.442;2023-04-25T11:22:21;6.57;;;0.95;;
69502;SDS011;56704;54.242;12.442;2023-04-25T11:24:49;5.40;;;1.08;;
69502;SDS011;56704;54.242;12.442;2023-04-25T11:27:15;7.20;;;1.10;;
69502;SDS011;56704;54.242;12.442;2023-04-25T11:29:42;11.85;;;1.20;;
69502;SDS011;56704;54.242;12.442;2023-04-25T11:32:09;8.45;;;1.38;;
69502;SDS011;56704;54.242;12.442;2023-04-25T11:34:36;7.40;;;1.30;;
69502;SDS011;56704;54.242;12.442;2023-04-25T11:37:03;4.93;;;0.60;;
69502;SDS011;56704;54.242;12.442;2023-04-25T11:39:31;9.17;;;1.47;;
69502;SDS011;56704;54.242;12.442;2023-04-25T11:41:57;6.80;;;0.68;;
69502;SDS011;56704;54.242;12.442;2023-04-25T11:44:24;7.00;;;1.33;;
69502;SDS011;56704;54.242;12.442;2023-04-25T11:46:51;5.35;;;0.80;;
69502;SDS011;56704;54.242;12.442;2023-04-25T11:49:18;6.95;;;0.80;;
69502;SDS011;56704;54.242;12.442;2023-04-25T11:51:47;9.77;;;1.30;;
69502;SDS011;56704;54.242;12.442;2023-04-25T11:54:15;5.45;;;0.73;;
69502;SDS011;56704;54.242;12.442;2023-04-25T11:56:42;4.22;;;0.73;;
69502;SDS011;56704;54.242;12.442;2023-04-25T11:59:09;7.60;;;0.85;;
69502;SDS011;56704;54.242;12.442;2023-04-25T12:01:36;6.55;;;0.93;;
69502;SDS011;56704;54.242;12.442;2023-04-25T12:04:10;7.53;;;0.87;;
69502;SDS011;56704;54.242;12.442;2023-04-25T12:06:37;12.63;;;1.42;;
69502;SDS011;56704;54.242;12.442;2023-04-25T12:09:07;12.07;;;1.58;;
69502;SDS011;56704;54.242;12.442;2023-04-25T12:11:40;5.18;;;0.57;;
69502;SDS011;56704;54.242;12.442;2023-04-25T12:14:08;6.47;;;0.60;;
69502;SDS011;56704;54.242;12.442;2023-04-25T12:16:41;5.47;;;0.60;;
69502;SDS011;56704;54.242;12.442;2023-04-25T12:19:08;5.47;;;1.02;;
69502;SDS011;56704;54.242;12.442;2023-04-25T12:21:34;5.82;;;0.85;;
69502;SDS011;56704;54.242;12.442;2023-04-25T12:24:13;7.13;;;0.95;;
69502;SDS011;56704;54.242;12.442;2023-04-25T12:26:47;9.65;;;1.77;;
69502;SDS011;56704;54.242;12.442;2023-04-25T12:29:16;8.90;;;1.10;;
69502;SDS011;56704;54.242;12.442;2023-04-25T12:31:43;8.48;;;1.35;;
69502;SDS011;56704;54.242;12.442;2023-04-25T12:34:10;6.20;;;1.00;;
69502;SDS011;56704;54.242;12.442;2023-04-25T12:36:36;5.53;;;0.95;;
69502;SDS011;56704;54.242;12.442;2023-04-25T12:39:03;4.28;;;0.77;;
69502;SDS011;56704;54.242;12.442;2023-04-25T12:41:31;7.00;;;0.70;;
69502;SDS011;56704;54.242;12.442;2023-04-25T12:43:58;5.10;;;0.95;;
69502;SDS011;56704;54.242;12.442;2023-04-25T12:46:24;5.45;;;1.10;;
69502;SDS011;56704;54.242;12.442;2023-04-25T12:48:51;8.50;;;1.10;;
69502;SDS011;56704;54.242;12.442;2023-04-25T12:51:18;10.20;;;1.30;;
69502;SDS011;56704;54.242;12.442;2023-04-25T12:53:44;3.73;;;0.77;;
69502;SDS011;56704;54.242;12.442;2023-04-25T12:56:11;6.30;;;0.95;;
69502;SDS011;56704;54.242;12.442;2023-04-25T12:58:39;5.88;;;1.10;;
69502;SDS011;56704;54.242;12.442;2023-04-25T13:01:05;4.07;;;0.93;;
69502;SDS011;56704;54.242;12.442;2023-04-25T13:03:32;6.82;;;1.30;;
69502;SDS011;56704;54.242;12.442;2023-04-25T13:05:59;4.27;;;0.80;;
69502;SDS011;56704;54.242;12.442;2023-04-25T13:08:26;6.50;;;0.82;;
69502;SDS011;56704;54.242;12.442;2023-04-25T13:10:53;4.88;;;0.77;;
69502;SDS011;56704;54.242;12.442;2023-04-25T13:13:19;5.43;;;0.90;;
69502;SDS011;56704;54.242;12.442;2023-04-25T13:15:47;5.10;;;1.17;;
69502;SDS011;56704;54.242;12.442;2023-04-25T13:18:14;8.43;;;0.80;;
69502;SDS011;56704;54.242;12.442;2023-04-25T13:20:41;4.97;;;0.68;;
69502;SDS011;56704;54.242;12.442;2023-04-25T13:23:07;4.85;;;0.70;;
69502;SDS011;56704;54.242;12.442;2023-04-25T13:25:34;5.50;;;0.85;;
69502;SDS011;56704;54.242;12.442;2023-04-25T13:28:01;7.55;;;1.02;;
69502;SDS011;56704;54.242;12.442;2023-04-25T13:30:28;3.60;;;0.40;;
69502;SDS011;56704;54.242;12.442;2023-04-25T13:32:56;3.65;;;0.68;;
69502;SDS011;56704;54.242;12.442;2023-04-25T13:35:28;5.68;;;0.98;;
69502;SDS011;56704;54.242;12.442;2023-04-25T13:37:55;6.63;;;1.00;;
69502;SDS011;56704;54.242;12.442;2023-04-25T13:40:22;6.35;;;0.90;;
69502;SDS011;56704;54.242;12.442;2023-04-25T13:42:48;6.70;;;0.90;;
69502;SDS011;56704;54.242;12.442;2023-04-25T13:45:16;6.53;;;0.88;;
69502;SDS011;56704;54.242;12.442;2023-04-25T13:47:42;6.80;;;0.93;;
69502;SDS011;56704;54.242;12.442;2023-04-25T13:50:10;5.30;;;0.90;;
69502;SDS011;56704;54.242;12.442;2023-04-25T13:52:38;9.98;;;1.33;;
69502;SDS011;56704;54.242;12.442;2023-04-25T13:55:05;6.37;;;0.87;;
69502;SDS011;56704;54.242;12.442;2023-04-25T13:57:33;4.97;;;0.60;;
69502;SDS011;56704;54.242;12.442;2023-04-25T14:00:00;6.88;;;1.15;;
69502;SDS011;56704;54.242;12.442;2023-04-25T14:02:29;5.93;;;0.73;;
69502;SDS011;56704;54.242;12.442;2023-04-25T14:04:56;11.32;;;1.20;;
69502;SDS011;56704;54.242;12.442;2023-04-25T14:07:25;6.60;;;0.80;;
69502;SDS011;56704;54.242;12.442;2023-04-25T14:09:52;9.77;;;0.90;;
69502;SDS011;56704;54.242;12.442;2023-04-25T14:12:19;8.55;;;0.50;;
69502;SDS011;56704;54.242;12.442;2023-04-25T14:14:45;5.35;;;0.80;;
69502;SDS011;56704;54.242;12.442;2023-04-25T14:17:12;6.90;;;0.75;;
69502;SDS011;56704;54.242;12.442;2023-04-25T14:19:39;4.83;;;0.60;;
69502;SDS011;56704;54.242;12.442;2023-04-25T14:22:08;4.72;;;0.60;;
69502;SDS011;56704;54.242;12.442;2023-04-25T14:24:36;6.38;;;1.02;;
69502;SDS011;56704;54.242;12.442;2023-04-25T14:27:03;7.75;;;0.75;;
69502;SDS011;56704;54.242;12.442;2023-04-25T14:29:29;3.92;;;0.60;;
69502;SDS011;56704;54.242;12.442;2023-04-25T14:31:56;5.47;;;0.70;;
69502;SDS011;56704;54.242;12.442;2023-04-25T14:34:24;5.60;;;0.60;;
69502;SDS011;56704;54.242;12.442;2023-04-25T14:36:50;5.90;;;0.95;;